sensor_id;sensor_type;location;lat;lon;timestamp;pressure;altitude;pressure_sealevel;temperature;humidity
23223;BME280;11780;13.904;100.620;2022-08-21T00:00:20;100534.13;;;30.11;70.17
23223;BME280;11780;13.904;100.620;2022-08-21T00:03:03;100527.13;;;30.14;69.96
23223;BME280;11780;13.904;100.620;2022-08-21T00:05:47;100532.34;;;30.15;70.44
23223;BME280;11780;13.904;100.620;2022-08-21T00:08:20;100531.72;;;30.18;70.49
23223;BME280;11780;13.904;100.620;2022-08-21T00:10:51;100539.97;;;30.18;70.25
23223;BME280;11780;13.904;100.620;2022-08-21T00:13:21;100539.31;;;30.21;70.44
23223;BME280;11780;13.904;100.620;2022-08-21T00:15:51;100551.50;;;30.20;70.69
23223;BME280;11780;13.904;100.620;2022-08-21T14:08:12;100576.34;;;29.71;77.09
23223;BME280;11780;13.904;100.620;2022-08-21T14:10:51;100580.22;;;29.70;77.09
23223;BME280;11780;13.904;100.620;2022-08-21T14:16:13;100589.13;;;29.67;77.43
23223;BME280;11780;13.904;100.620;2022-08-21T14:18:54;100604.25;;;29.70;77.76
23223;BME280;11780;13.904;100.620;2022-08-21T14:21:40;100593.22;;;29.70;77.93
23223;BME280;11780;13.904;100.620;2022-08-21T14:27:04;100596.78;;;29.70;78.23
23223;BME280;11780;13.904;100.620;2022-08-21T14:29:39;100602.44;;;29.65;77.92
23223;BME280;11780;13.904;100.620;2022-08-21T14:32:20;100618.63;;;29.58;78.73
23223;BME280;11780;13.904;100.620;2022-08-21T14:34:53;100618.28;;;29.59;78.15
23223;BME280;11780;13.904;100.620;2022-08-21T14:37:25;100610.72;;;29.65;78.16
23223;BME280;11780;13.904;100.620;2022-08-21T14:39:56;100615.28;;;29.70;78.26
23223;BME280;11780;13.904;100.620;2022-08-21T14:42:26;100630.94;;;29.60;78.34
23223;BME280;11780;13.904;100.620;2022-08-21T14:45:02;100625.97;;;29.71;78.16
23223;BME280;11780;13.904;100.620;2022-08-21T14:47:35;100631.53;;;29.80;78.00
23223;BME280;11780;13.904;100.620;2022-08-21T14:50:07;100638.69;;;29.90;77.60
23223;BME280;11780;13.904;100.620;2022-08-21T14:52:37;100637.56;;;29.91;77.25
23223;BME280;11780;13.904;100.620;2022-08-21T14:55:09;100642.44;;;29.94;77.07
23223;BME280;11780;13.904;100.620;2022-08-21T14:57:48;100647.34;;;29.97;77.15
23223;BME280;11780;13.904;100.620;2022-08-21T15:00:28;100660.19;;;30.02;76.93
23223;BME280;11780;13.904;100.620;2022-08-21T15:03:02;100659.22;;;30.06;76.96
23223;BME280;11780;13.904;100.620;2022-08-21T15:05:34;100652.56;;;30.07;76.54
23223;BME280;11780;13.904;100.620;2022-08-21T15:08:07;100654.19;;;30.08;76.71
23223;BME280;11780;13.904;100.620;2022-08-21T15:10:38;100654.19;;;30.08;76.52
23223;BME280;11780;13.904;100.620;2022-08-21T15:13:29;100660.34;;;30.05;76.78
23223;BME280;11780;13.904;100.620;2022-08-21T15:16:00;100666.03;;;30.09;76.39
23223;BME280;11780;13.904;100.620;2022-08-21T15:18:32;100677.56;;;30.11;76.74
23223;BME280;11780;13.904;100.620;2022-08-21T15:21:03;100684.72;;;30.21;76.17
23223;BME280;11780;13.904;100.620;2022-08-21T15:23:33;100682.13;;;30.25;76.17
23223;BME280;11780;13.904;100.620;2022-08-21T15:26:10;100679.56;;;30.28;76.40
23223;BME280;11780;13.904;100.620;2022-08-21T15:28:41;100687.69;;;30.33;76.04
23223;BME280;11780;13.904;100.620;2022-08-21T15:31:12;100688.81;;;30.32;75.75
23223;BME280;11780;13.904;100.620;2022-08-21T15:33:42;100689.13;;;30.31;75.80
23223;BME280;11780;13.904;100.620;2022-08-21T15:36:14;100689.13;;;30.22;75.93
23223;BME280;11780;13.904;100.620;2022-08-21T15:38:44;100688.13;;;30.18;76.09
23223;BME280;11780;13.904;100.620;2022-08-21T15:41:15;100689.41;;;30.12;76.67
23223;BME280;11780;13.904;100.620;2022-08-21T15:43:50;100696.38;;;30.09;77.08
23223;BME280;11780;13.904;100.620;2022-08-21T15:46:21;100701.72;;;30.05;76.91
23223;BME280;11780;13.904;100.620;2022-08-21T15:48:52;100702.22;;;30.07;77.09
23223;BME280;11780;13.904;100.620;2022-08-21T15:51:26;100707.25;;;30.05;77.09
23223;BME280;11780;13.904;100.620;2022-08-21T15:53:56;100700.72;;;30.01;77.17
23223;BME280;11780;13.904;100.620;2022-08-21T15:56:38;100700.44;;;30.03;77.29
23223;BME280;11780;13.904;100.620;2022-08-21T15:59:15;100693.06;;;29.98;77.04
23223;BME280;11780;13.904;100.620;2022-08-21T16:01:50;100690.69;;;30.05;77.12
23223;BME280;11780;13.904;100.620;2022-08-21T16:04:25;100686.94;;;30.01;76.96
23223;BME280;11780;13.904;100.620;2022-08-21T16:06:56;100688.56;;;30.02;77.03
23223;BME280;11780;13.904;100.620;2022-08-21T16:09:35;100682.25;;;30.02;77.17
23223;BME280;11780;13.904;100.620;2022-08-21T16:12:06;100683.03;;;30.02;77.22
23223;BME280;11780;13.904;100.620;2022-08-21T16:14:38;100677.03;;;30.00;77.63
23223;BME280;11780;13.904;100.620;2022-08-21T16:17:08;100684.50;;;30.00;77.01
23223;BME280;11780;13.904;100.620;2022-08-21T16:19:39;100689.19;;;29.99;77.24
23223;BME280;11780;13.904;100.620;2022-08-21T16:22:09;100689.84;;;29.96;77.42
23223;BME280;11780;13.904;100.620;2022-08-21T16:24:40;100694.53;;;29.96;77.08
23223;BME280;11780;13.904;100.620;2022-08-21T16:27:11;100699.75;;;29.97;77.02
23223;BME280;11780;13.904;100.620;2022-08-21T16:29:44;100689.53;;;29.98;77.17
23223;BME280;11780;13.904;100.620;2022-08-21T16:32:16;100687.69;;;29.93;77.67
23223;BME280;11780;13.904;100.620;2022-08-21T16:34:48;100686.75;;;29.98;77.17
23223;BME280;11780;13.904;100.620;2022-08-21T16:37:20;100685.00;;;30.02;77.18
23223;BME280;11780;13.904;100.620;2022-08-21T16:39:54;100688.06;;;30.00;77.66
23223;BME280;11780;13.904;100.620;2022-08-21T16:42:25;100689.03;;;29.96;77.49
23223;BME280;11780;13.904;100.620;2022-08-21T16:44:56;100681.06;;;29.94;77.77
23223;BME280;11780;13.904;100.620;2022-08-21T16:47:26;100680.75;;;29.96;77.68
23223;BME280;11780;13.904;100.620;2022-08-21T16:49:56;100680.44;;;29.97;77.66
23223;BME280;11780;13.904;100.620;2022-08-21T16:52:27;100689.84;;;29.96;77.34
23223;BME280;11780;13.904;100.620;2022-08-21T16:54:59;100687.69;;;29.93;77.39
23223;BME280;11780;13.904;100.620;2022-08-21T16:57:30;100684.94;;;29.93;77.67
23223;BME280;11780;13.904;100.620;2022-08-21T17:00:03;100695.47;;;29.91;77.80
23223;BME280;11780;13.904;100.620;2022-08-21T17:02:36;100688.66;;;29.88;77.82
23223;BME280;11780;13.904;100.620;2022-08-21T17:05:08;100694.66;;;29.90;77.83
23223;BME280;11780;13.904;100.620;2022-08-21T17:07:41;100690.44;;;29.93;77.93
23223;BME280;11780;13.904;100.620;2022-08-21T17:10:15;100696.28;;;29.91;78.11
23223;BME280;11780;13.904;100.620;2022-08-21T17:12:53;100691.59;;;29.92;78.18
23223;BME280;11780;13.904;100.620;2022-08-21T17:15:36;100678.81;;;29.96;78.04
23223;BME280;11780;13.904;100.620;2022-08-21T17:18:11;100685.13;;;29.97;77.86
23223;BME280;11780;13.904;100.620;2022-08-21T17:20:42;100676.66;;;29.93;78.24
23223;BME280;11780;13.904;100.620;2022-08-21T17:23:13;100664.81;;;29.92;78.12
23223;BME280;11780;13.904;100.620;2022-08-21T17:25:45;100660.66;;;29.95;77.94
23223;BME280;11780;13.904;100.620;2022-08-21T17:28:21;100663.06;;;29.97;78.38
23223;BME280;11780;13.904;100.620;2022-08-21T17:30:53;100659.50;;;29.96;77.96
23223;BME280;11780;13.904;100.620;2022-08-21T17:33:25;100652.66;;;29.93;78.38
23223;BME280;11780;13.904;100.620;2022-08-21T17:35:58;100656.53;;;29.92;78.08
23223;BME280;11780;13.904;100.620;2022-08-21T17:38:29;100653.47;;;29.94;78.43
23223;BME280;11780;13.904;100.620;2022-08-21T17:41:00;100649.63;;;29.95;78.05
23223;BME280;11780;13.904;100.620;2022-08-21T17:43:31;100647.97;;;29.94;78.28
23223;BME280;11780;13.904;100.620;2022-08-21T17:46:03;100647.97;;;29.94;78.14
23223;BME280;11780;13.904;100.620;2022-08-21T17:48:33;100640.81;;;29.93;78.21
23223;BME280;11780;13.904;100.620;2022-08-21T17:51:04;100647.97;;;29.94;78.18
23223;BME280;11780;13.904;100.620;2022-08-21T17:53:38;100649.88;;;29.93;78.02
23223;BME280;11780;13.904;100.620;2022-08-21T17:56:08;100649.09;;;29.93;77.78
23223;BME280;11780;13.904;100.620;2022-08-21T17:58:38;100643.44;;;29.98;77.73
23223;BME280;11780;13.904;100.620;2022-08-21T18:01:11;100638.06;;;29.93;78.00
23223;BME280;11780;13.904;100.620;2022-08-21T18:03:42;100638.06;;;29.93;78.00
23223;BME280;11780;13.904;100.620;2022-08-21T18:06:14;100640.94;;;29.88;77.79
23223;BME280;11780;13.904;100.620;2022-08-21T18:08:45;100634.31;;;29.89;77.75
23223;BME280;11780;13.904;100.620;2022-08-21T18:11:16;100630.41;;;29.90;77.62
23223;BME280;11780;13.904;100.620;2022-08-21T18:13:52;100627.16;;;29.88;77.67
23223;BME280;11780;13.904;100.620;2022-08-21T18:16:23;100622.78;;;29.87;77.73
23223;BME280;11780;13.904;100.620;2022-08-21T18:18:54;100620.53;;;29.89;77.53
23223;BME280;11780;13.904;100.620;2022-08-21T18:21:26;100613.38;;;29.88;77.26
23223;BME280;11780;13.904;100.620;2022-08-21T18:23:57;100608.53;;;29.93;77.44
23223;BME280;11780;13.904;100.620;2022-08-21T18:26:31;100609.16;;;29.90;77.32
23223;BME280;11780;13.904;100.620;2022-08-21T18:29:06;100609.81;;;29.87;77.12
23223;BME280;11780;13.904;100.620;2022-08-21T18:31:39;100616.97;;;29.88;76.93
23223;BME280;11780;13.904;100.620;2022-08-21T18:36:50;100614.22;;;29.88;76.50
23223;BME280;11780;13.904;100.620;2022-08-21T18:39:21;100611.81;;;29.96;76.01
23223;BME280;11780;13.904;100.620;2022-08-21T18:42:10;100608.34;;;29.90;75.81
23223;BME280;11780;13.904;100.620;2022-08-21T18:44:44;100602.84;;;29.90;76.00
23223;BME280;11780;13.904;100.620;2022-08-21T18:47:27;100605.94;;;29.88;75.67
23223;BME280;11780;13.904;100.620;2022-08-21T18:50:07;100597.97;;;29.87;75.51
23223;BME280;11780;13.904;100.620;2022-08-21T18:52:41;100590.84;;;29.95;75.15
23223;BME280;11780;13.904;100.620;2022-08-21T18:55:22;100589.06;;;29.90;75.29
23223;BME280;11780;13.904;100.620;2022-08-21T18:57:55;100582.41;;;29.91;75.27
23223;BME280;11780;13.904;100.620;2022-08-21T19:00:31;100584.19;;;29.87;75.35
23223;BME280;11780;13.904;100.620;2022-08-21T19:03:13;100585.31;;;29.86;75.26
23223;BME280;11780;13.904;100.620;2022-08-21T19:05:52;100574.28;;;29.86;75.06
23223;BME280;11780;13.904;100.620;2022-08-21T19:08:23;100569.09;;;29.84;74.84
23223;BME280;11780;13.904;100.620;2022-08-21T19:10:58;100562.44;;;29.85;74.56
23223;BME280;11780;13.904;100.620;2022-08-21T19:13:32;100555.16;;;29.89;74.79
23223;BME280;11780;13.904;100.620;2022-08-21T19:16:03;100555.63;;;29.91;74.46
23223;BME280;11780;13.904;100.620;2022-08-21T19:18:39;100558.06;;;29.84;75.08
23223;BME280;11780;13.904;100.620;2022-08-21T19:21:10;100551.72;;;29.84;74.75
23223;BME280;11780;13.904;100.620;2022-08-21T19:23:41;100554.31;;;29.80;74.70
23223;BME280;11780;13.904;100.620;2022-08-21T19:26:11;100548.00;;;29.80;75.01
23223;BME280;11780;13.904;100.620;2022-08-21T19:28:45;100543.13;;;29.76;74.81
23223;BME280;11780;13.904;100.620;2022-08-21T19:31:27;100536.97;;;29.80;74.70
23223;BME280;11780;13.904;100.620;2022-08-21T19:36:42;100537.78;;;29.80;74.53
23223;BME280;11780;13.904;100.620;2022-08-21T19:39:15;100535.69;;;29.86;74.28
23223;BME280;11780;13.904;100.620;2022-08-21T19:41:50;100529.50;;;29.80;74.03
23223;BME280;11780;13.904;100.620;2022-08-21T19:44:24;100530.50;;;29.84;73.76
23223;BME280;11780;13.904;100.620;2022-08-21T19:46:57;100532.25;;;29.80;74.08
23223;BME280;11780;13.904;100.620;2022-08-21T19:49:33;100538.59;;;29.81;73.81
23223;BME280;11780;13.904;100.620;2022-08-21T19:52:04;100527.56;;;29.81;74.22
23223;BME280;11780;13.904;100.620;2022-08-21T19:54:54;100522.06;;;29.81;74.47
23223;BME280;11780;13.904;100.620;2022-08-21T19:57:25;100519.47;;;29.84;73.87
23223;BME280;11780;13.904;100.620;2022-08-21T19:59:55;100516.38;;;29.86;74.05
23223;BME280;11780;13.904;100.620;2022-08-21T20:02:26;100499.03;;;29.85;74.29
23223;BME280;11780;13.904;100.620;2022-08-21T20:04:56;100506.16;;;29.77;74.78
23223;BME280;11780;13.904;100.620;2022-08-21T20:07:28;100500.66;;;29.77;74.57
23223;BME280;11780;13.904;100.620;2022-08-21T20:10:18;100496.75;;;29.78;74.78
23223;BME280;11780;13.904;100.620;2022-08-21T20:12:48;100500.31;;;29.79;74.65
23223;BME280;11780;13.904;100.620;2022-08-21T20:15:21;100492.88;;;29.80;74.55
23223;BME280;11780;13.904;100.620;2022-08-21T20:17:52;100491.25;;;29.78;74.48
23223;BME280;11780;13.904;100.620;2022-08-21T20:20:22;100491.06;;;29.84;74.48
23223;BME280;11780;13.904;100.620;2022-08-21T20:22:58;100492.38;;;29.77;74.49
23223;BME280;11780;13.904;100.620;2022-08-21T20:25:40;100481.84;;;29.80;75.06
23223;BME280;11780;13.904;100.620;2022-08-21T20:28:12;100476.31;;;29.80;74.61
23223;BME280;11780;13.904;100.620;2022-08-21T20:30:44;100475.66;;;29.83;74.48
23223;BME280;11780;13.904;100.620;2022-08-21T20:33:16;100476.97;;;29.76;74.74
23223;BME280;11780;13.904;100.620;2022-08-21T20:35:47;100481.50;;;29.72;74.82
23223;BME280;11780;13.904;100.620;2022-08-21T20:38:19;100474.06;;;29.73;74.58
23223;BME280;11780;13.904;100.620;2022-08-21T20:40:52;100483.13;;;29.73;74.51
23223;BME280;11780;13.904;100.620;2022-08-21T20:43:24;100480.19;;;29.70;74.91
23223;BME280;11780;13.904;100.620;2022-08-21T20:45:55;100475.31;;;29.67;74.45
23223;BME280;11780;13.904;100.620;2022-08-21T20:48:29;100478.09;;;29.67;74.86
23223;BME280;11780;13.904;100.620;2022-08-21T20:51:27;100485.22;;;29.68;74.59
23223;BME280;11780;13.904;100.620;2022-08-21T20:57:10;100501.28;;;29.74;74.32
23223;BME280;11780;13.904;100.620;2022-08-21T21:00:09;100494.63;;;29.67;74.60
23223;BME280;11780;13.904;100.620;2022-08-21T21:03:07;100495.75;;;29.66;74.54
23223;BME280;11780;13.904;100.620;2022-08-21T21:05:54;100499.34;;;29.66;74.40
23223;BME280;11780;13.904;100.620;2022-08-21T21:08:33;100499.78;;;29.59;74.89
23223;BME280;11780;13.904;100.620;2022-08-21T21:11:12;100500.59;;;29.60;74.99
23223;BME280;11780;13.904;100.620;2022-08-21T21:13:50;100500.75;;;29.63;74.78
23223;BME280;11780;13.904;100.620;2022-08-21T21:16:35;100496.56;;;29.66;74.67
23223;BME280;11780;13.904;100.620;2022-08-21T21:22:19;100504.16;;;29.60;75.07
23223;BME280;11780;13.904;100.620;2022-08-21T21:25:52;100498.50;;;29.66;75.08
23223;BME280;11780;13.904;100.620;2022-08-21T21:28:56;100506.13;;;29.60;74.73
23223;BME280;11780;13.904;100.620;2022-08-21T21:31:37;100502.88;;;29.58;74.91
23223;BME280;11780;13.904;100.620;2022-08-21T21:34:07;100504.00;;;29.57;75.26
23223;BME280;11780;13.904;100.620;2022-08-21T21:37:19;100503.69;;;29.58;75.22
23223;BME280;11780;13.904;100.620;2022-08-21T21:40:17;100499.63;;;29.56;75.22
23223;BME280;11780;13.904;100.620;2022-08-21T21:46:00;100508.22;;;29.54;75.37
23223;BME280;11780;13.904;100.620;2022-08-21T21:49:54;100514.06;;;29.61;75.21
23223;BME280;11780;13.904;100.620;2022-08-21T22:00:48;100543.72;;;29.56;75.61
23223;BME280;11780;13.904;100.620;2022-08-21T22:03:41;100543.03;;;29.50;75.24
23223;BME280;11780;13.904;100.620;2022-08-21T22:06:32;100544.06;;;29.63;75.08
23223;BME280;11780;13.904;100.620;2022-08-21T22:12:04;100542.75;;;29.60;74.98
23223;BME280;11780;13.904;100.620;2022-08-21T22:14:41;100555.09;;;29.63;74.79
23223;BME280;11780;13.904;100.620;2022-08-21T22:19:59;100554.72;;;29.56;74.96
23223;BME280;11780;13.904;100.620;2022-08-21T22:22:41;100545.97;;;29.54;75.30
23223;BME280;11780;13.904;100.620;2022-08-21T22:25:26;100547.97;;;29.62;74.93
23223;BME280;11780;13.904;100.620;2022-08-21T22:28:11;100545.97;;;29.54;75.26
23223;BME280;11780;13.904;100.620;2022-08-21T22:30:53;100552.47;;;29.58;75.28
23223;BME280;11780;13.904;100.620;2022-08-21T22:33:25;100550.66;;;29.44;75.42
23223;BME280;11780;13.904;100.620;2022-08-21T22:35:57;100551.22;;;29.32;75.85
23223;BME280;11780;13.904;100.620;2022-08-21T22:38:32;100563.97;;;29.20;76.44
23223;BME280;11780;13.904;100.620;2022-08-21T22:41:15;100556.63;;;29.15;76.33
23223;BME280;11780;13.904;100.620;2022-08-21T22:44:03;100553.31;;;29.04;76.44
23223;BME280;11780;13.904;100.620;2022-08-21T22:46:44;100561.88;;;28.94;76.72
23223;BME280;11780;13.904;100.620;2022-08-21T22:52:06;100567.47;;;28.80;77.55
23223;BME280;11780;13.904;100.620;2022-08-21T22:54:41;100566.25;;;28.72;77.89
23223;BME280;11780;13.904;100.620;2022-08-21T22:57:27;100570.63;;;28.73;78.51
